createdAt,value
2022-10-19T00:02:20.863Z,57.78
2022-10-19T00:04:47.594Z,57.87
2022-10-19T00:07:14.235Z,57.89
2022-10-19T00:09:43.529Z,58.30
2022-10-19T00:12:10.237Z,58.37
2022-10-19T00:14:36.840Z,58.56
2022-10-19T00:17:03.560Z,58.47
2022-10-19T00:19:30.266Z,58.57
2022-10-19T00:21:56.932Z,58.65
2022-10-19T00:24:23.618Z,58.65
2022-10-19T00:26:50.342Z,58.73
2022-10-19T00:29:17.089Z,58.88
2022-10-19T00:31:43.772Z,59.09
2022-10-19T00:34:10.578Z,59.34
2022-10-19T00:36:38.524Z,59.68
2022-10-19T00:39:06.413Z,59.42
2022-10-19T00:41:33.530Z,59.62
2022-10-19T00:44:12.469Z,59.57
2022-10-19T00:46:43.410Z,59.86
2022-10-19T00:49:15.110Z,60.08
2022-10-19T00:51:43.995Z,60.14
2022-10-19T00:54:10.773Z,60.59
2022-10-19T00:56:38.404Z,60.69
2022-10-19T00:59:05.157Z,60.54
2022-10-19T01:01:32.018Z,60.63
2022-10-19T01:03:58.783Z,60.50
2022-10-19T01:06:25.595Z,60.63
2022-10-19T01:08:52.257Z,60.66
2022-10-19T01:11:27.410Z,60.30
2022-10-19T01:14:14.545Z,60.18
2022-10-19T01:16:53.288Z,60.32
2022-10-19T01:19:37.188Z,60.42
2022-10-19T01:22:30.279Z,59.94
2022-10-19T01:25:20.210Z,60.22
2022-10-19T01:28:08.537Z,60.12
2022-10-19T01:30:42.600Z,60.17
2022-10-19T01:33:12.291Z,59.92
2022-10-19T01:36:04.965Z,60.16
2022-10-19T01:38:51.032Z,59.99
2022-10-19T01:41:28.810Z,59.97
2022-10-19T01:43:58.804Z,59.99
2022-10-19T01:46:39.263Z,60.05
2022-10-19T01:49:18.226Z,60.03
2022-10-19T01:51:50.431Z,60.05
2022-10-19T01:54:17.285Z,60.21
2022-10-19T01:56:44.074Z,60.35
2022-10-19T01:59:10.893Z,60.46
2022-10-19T02:01:38.079Z,60.63
2022-10-19T02:04:04.790Z,60.65
2022-10-19T02:06:31.465Z,60.92
2022-10-19T02:08:58.143Z,60.96
2022-10-19T02:11:24.824Z,61.15
2022-10-19T02:13:54.566Z,61.37
2022-10-19T02:16:25.799Z,61.50
2022-10-19T02:18:52.475Z,61.68
2022-10-19T02:21:19.233Z,61.60
2022-10-19T02:23:48.332Z,61.76
2022-10-19T02:26:17.137Z,61.78
2022-10-19T02:28:44.000Z,61.99
2022-10-19T02:31:10.694Z,62.15
2022-10-19T02:33:37.420Z,62.29
2022-10-19T02:36:04.096Z,62.35
2022-10-19T02:38:30.756Z,62.54
2022-10-19T02:41:17.000Z,62.60
2022-10-19T02:43:45.597Z,62.82
2022-10-19T02:46:25.818Z,62.96
2022-10-19T02:48:52.489Z,63.00
2022-10-19T02:51:51.751Z,63.15
2022-10-19T02:54:18.608Z,63.37
2022-10-19T02:56:45.285Z,63.61
2022-10-19T02:59:11.933Z,63.84
2022-10-19T03:01:38.596Z,63.98
2022-10-19T03:04:05.265Z,64.19
2022-10-19T03:06:31.946Z,64.40
2022-10-19T03:08:58.608Z,64.56
2022-10-19T03:11:25.297Z,64.87
2022-10-19T03:13:51.969Z,64.93
2022-10-19T03:16:18.681Z,65.15
2022-10-19T03:18:45.299Z,65.24
2022-10-19T03:21:12.803Z,65.48
2022-10-19T03:23:39.782Z,65.63
2022-10-19T03:26:09.981Z,65.85
2022-10-19T03:28:38.913Z,66.15
2022-10-19T03:31:05.700Z,66.16
2022-10-19T03:33:32.372Z,66.40
2022-10-19T03:36:19.631Z,66.40
2022-10-19T03:38:46.524Z,66.44
2022-10-19T03:41:13.414Z,66.41
2022-10-19T03:43:41.246Z,66.63
2022-10-19T03:46:08.541Z,66.91
2022-10-19T03:48:35.386Z,66.95
2022-10-19T03:51:02.824Z,67.08
2022-10-19T03:53:33.144Z,67.18
2022-10-19T03:56:16.834Z,67.38
2022-10-19T03:58:44.305Z,67.42
2022-10-19T04:01:16.896Z,67.57
2022-10-19T04:03:43.711Z,67.81
2022-10-19T04:06:15.790Z,68.06
2022-10-19T04:08:45.010Z,68.14
2022-10-19T04:11:13.156Z,68.27
2022-10-19T04:13:39.964Z,68.50
2022-10-19T04:16:06.849Z,68.62
2022-10-19T04:18:33.653Z,68.79
2022-10-19T04:21:01.783Z,68.78
2022-10-19T04:23:29.741Z,68.87
2022-10-19T04:26:00.580Z,68.88
2022-10-19T04:28:27.519Z,69.02
2022-10-19T04:30:54.364Z,69.13
2022-10-19T04:33:20.942Z,69.32
2022-10-19T04:35:47.610Z,69.51
2022-10-19T04:38:14.298Z,69.64
2022-10-19T04:40:40.964Z,69.74
2022-10-19T04:43:07.606Z,70.24
2022-10-19T04:45:35.526Z,70.44
2022-10-19T04:48:02.466Z,70.60
2022-10-19T04:50:29.126Z,70.85
2022-10-19T04:52:55.841Z,71.20
2022-10-19T04:55:22.420Z,71.29
2022-10-19T04:57:49.092Z,71.48
2022-10-19T05:00:16.054Z,71.62
2022-10-19T05:02:44.561Z,71.69
2022-10-19T05:05:14.222Z,72.07
2022-10-19T05:07:41.138Z,72.56
2022-10-19T05:10:08.605Z,72.70
2022-10-19T05:12:35.850Z,72.97
2022-10-19T05:15:02.929Z,73.22
2022-10-19T05:17:31.878Z,73.50
2022-10-19T05:19:58.768Z,73.86
2022-10-19T05:22:25.460Z,74.29
2022-10-19T05:24:54.574Z,74.77
2022-10-19T05:27:24.718Z,75.22
2022-10-19T05:29:51.340Z,75.64
2022-10-19T05:32:18.073Z,76.10
2022-10-19T05:34:44.662Z,76.37
2022-10-19T05:37:11.459Z,76.65
2022-10-19T05:39:38.290Z,76.67
2022-10-19T05:42:05.233Z,77.28
2022-10-19T05:44:32.016Z,77.56
2022-10-19T05:46:58.664Z,78.05
2022-10-19T05:49:25.345Z,78.36
2022-10-19T05:51:52.150Z,78.49
2022-10-19T05:54:18.882Z,78.93
2022-10-19T05:56:45.812Z,79.18
2022-10-19T05:59:15.444Z,79.41
2022-10-19T06:01:42.191Z,79.63
2022-10-19T06:04:08.916Z,79.80
2022-10-19T06:06:35.651Z,79.97
2022-10-19T06:09:02.370Z,80.33
2022-10-19T06:11:29.850Z,80.68
2022-10-19T06:13:58.108Z,81.06
2022-10-19T06:16:25.688Z,81.30
2022-10-19T06:18:52.703Z,81.97
2022-10-19T06:21:21.045Z,82.23
2022-10-19T06:23:51.752Z,82.37
2022-10-19T06:26:18.706Z,82.44
2022-10-19T06:28:45.356Z,82.43
2022-10-19T06:31:13.376Z,82.24
2022-10-19T06:33:40.985Z,82.05
2022-10-19T06:36:23.355Z,81.75
2022-10-19T06:38:50.211Z,81.41
2022-10-19T06:41:17.248Z,81.45
2022-10-19T06:43:44.326Z,81.03
2022-10-19T06:46:15.675Z,80.62
2022-10-19T06:48:42.444Z,80.39
2022-10-19T06:51:09.158Z,80.07
2022-10-19T06:53:36.302Z,80.00
2022-10-19T06:56:05.436Z,80.00
2022-10-19T06:58:35.528Z,80.07
2022-10-19T07:01:02.319Z,80.15
2022-10-19T07:03:29.287Z,80.27
2022-10-19T07:05:57.081Z,80.31
2022-10-19T07:08:24.404Z,80.26
2022-10-19T07:10:56.126Z,80.07
2022-10-19T07:13:23.018Z,79.77
2022-10-19T07:15:49.741Z,79.39
2022-10-19T07:18:16.418Z,79.21
2022-10-19T07:20:43.099Z,79.28
2022-10-19T07:23:09.702Z,79.14
2022-10-19T07:25:36.574Z,79.26
2022-10-19T07:28:03.333Z,79.25
2022-10-19T07:30:29.965Z,79.51
2022-10-19T07:32:56.635Z,79.36
2022-10-19T07:35:23.302Z,79.13
2022-10-19T07:37:49.926Z,79.17
2022-10-19T07:40:16.609Z,78.87
2022-10-19T07:42:43.312Z,78.92
2022-10-19T07:45:10.140Z,78.63
2022-10-19T07:47:37.040Z,78.74
2022-10-19T07:50:03.949Z,78.54
2022-10-19T07:52:33.076Z,78.51
2022-10-19T07:55:03.475Z,78.33
2022-10-19T07:57:30.144Z,77.91
2022-10-19T07:59:56.780Z,77.66
2022-10-19T08:02:30.790Z,77.65
2022-10-19T08:08:12.312Z,76.99
2022-10-19T08:10:38.930Z,76.72
2022-10-19T08:13:05.627Z,76.95
2022-10-19T08:15:32.528Z,76.91
2022-10-19T08:17:59.886Z,76.84
2022-10-19T08:20:26.734Z,76.87
2022-10-19T08:22:56.482Z,76.54
2022-10-19T08:25:25.669Z,76.53
2022-10-19T08:27:52.639Z,76.47
2022-10-19T08:30:19.326Z,76.62
2022-10-19T08:32:45.886Z,77.05
2022-10-19T08:35:12.624Z,77.03
2022-10-19T08:37:44.842Z,77.20
2022-10-19T08:40:21.425Z,77.03
2022-10-19T08:42:51.114Z,77.08
2022-10-19T08:45:47.164Z,76.69
2022-10-19T08:48:27.142Z,76.67
2022-10-19T08:50:53.882Z,75.92
2022-10-19T08:53:37.753Z,75.14
2022-10-19T08:56:07.375Z,75.48
2022-10-19T08:58:42.987Z,75.01
2022-10-19T09:01:15.151Z,74.85
2022-10-19T09:03:56.600Z,74.86
2022-10-19T09:06:28.337Z,74.50
2022-10-19T09:08:55.643Z,74.75
2022-10-19T09:11:25.925Z,74.82
2022-10-19T09:14:05.089Z,74.69
2022-10-19T09:16:32.305Z,74.92
2022-10-19T09:18:59.026Z,75.11
2022-10-19T09:21:47.422Z,75.01
2022-10-19T09:24:25.891Z,75.12
2022-10-19T09:26:53.906Z,75.00
2022-10-19T09:29:31.113Z,74.76
2022-10-19T09:31:59.527Z,74.65
2022-10-19T09:34:36.732Z,74.22
2022-10-19T09:37:03.557Z,73.75
2022-10-19T09:39:30.738Z,73.51
2022-10-19T09:42:11.034Z,73.50
2022-10-19T09:44:37.724Z,73.73
2022-10-19T09:47:22.713Z,73.72
2022-10-19T09:49:49.410Z,73.69
2022-10-19T09:52:31.355Z,73.58
2022-10-19T09:55:02.803Z,73.36
2022-10-19T09:57:29.534Z,73.54
2022-10-19T09:59:56.585Z,73.83
2022-10-19T10:02:33.135Z,73.79
2022-10-19T10:05:10.579Z,73.74
2022-10-19T10:07:38.108Z,73.60
2022-10-19T10:10:30.563Z,73.26
2022-10-19T10:13:00.596Z,73.07
2022-10-19T10:15:41.138Z,72.92
2022-10-19T10:18:18.917Z,72.86
2022-10-19T10:20:59.438Z,72.62
2022-10-19T10:23:28.886Z,72.43
2022-10-19T10:25:56.932Z,72.21
2022-10-19T10:28:28.400Z,72.05
2022-10-19T10:31:15.347Z,71.97
2022-10-19T10:33:45.787Z,71.74
2022-10-19T10:36:12.820Z,71.94
2022-10-19T10:38:40.932Z,71.27
2022-10-19T10:41:28.938Z,71.05
2022-10-19T10:43:59.634Z,69.97
2022-10-19T10:46:41.445Z,68.97
2022-10-19T10:49:08.470Z,68.02
2022-10-19T10:51:39.383Z,67.40
2022-10-19T10:54:25.901Z,66.75
2022-10-19T10:57:09.364Z,65.54
2022-10-19T11:00:02.327Z,65.32
2022-10-19T11:02:31.217Z,63.02
2022-10-19T11:05:04.529Z,61.64
2022-10-19T11:07:32.781Z,61.53
2022-10-19T11:10:02.729Z,61.85
2022-10-19T11:12:36.203Z,61.52
2022-10-19T11:15:26.113Z,61.85
2022-10-19T11:18:14.331Z,61.72
2022-10-19T11:20:44.864Z,61.52
2022-10-19T11:23:14.768Z,60.91
2022-10-19T11:26:14.413Z,60.28
2022-10-19T11:28:50.079Z,59.79
2022-10-19T11:31:22.712Z,59.43
2022-10-19T11:34:00.374Z,59.58
2022-10-19T11:36:30.519Z,59.48
2022-10-19T11:39:21.156Z,59.77
2022-10-19T11:42:06.738Z,60.00
2022-10-19T11:44:54.328Z,59.96
2022-10-19T11:47:30.146Z,60.24
2022-10-19T11:50:03.276Z,59.99
2022-10-19T11:52:33.721Z,59.50
2022-10-19T11:55:37.466Z,59.21
2022-10-19T11:58:11.574Z,59.65
2022-10-19T12:00:45.867Z,59.89
2022-10-19T12:03:26.186Z,60.12
2022-10-19T12:06:11.906Z,59.94
2022-10-19T12:09:00.051Z,59.78
2022-10-19T12:11:41.236Z,59.89
2022-10-19T12:14:16.959Z,59.99
2022-10-19T12:16:50.045Z,59.46
2022-10-19T12:19:19.975Z,59.61
2022-10-19T12:21:46.800Z,59.61
2022-10-19T12:24:16.319Z,58.72
2022-10-19T12:26:43.008Z,58.98
2022-10-19T12:29:19.778Z,58.77
2022-10-19T12:31:46.844Z,59.20
2022-10-19T12:34:20.789Z,59.48
2022-10-19T12:36:55.860Z,59.63
2022-10-19T12:39:26.503Z,59.66
2022-10-19T12:42:15.112Z,59.71
2022-10-19T12:45:03.238Z,59.57
2022-10-19T12:47:29.926Z,59.47
2022-10-19T12:49:57.019Z,58.28
2022-10-19T12:52:46.082Z,57.06
2022-10-19T12:55:15.818Z,56.69
2022-10-19T12:57:48.359Z,56.60
2022-10-19T13:00:30.818Z,56.17
2022-10-19T13:03:23.944Z,56.16
2022-10-19T13:06:00.480Z,56.39
2022-10-19T13:08:42.050Z,56.67
2022-10-19T13:11:14.709Z,56.76
2022-10-19T13:13:58.887Z,56.93
2022-10-19T13:16:28.622Z,56.88
2022-10-19T13:19:17.945Z,56.57
2022-10-19T13:21:52.467Z,56.40
2022-10-19T13:24:25.225Z,56.35
2022-10-19T13:27:04.252Z,56.69
2022-10-19T13:29:37.143Z,56.89
2022-10-19T13:32:32.128Z,56.98
2022-10-19T13:35:21.048Z,57.53
2022-10-19T13:38:16.594Z,57.99
2022-10-19T13:40:49.568Z,58.03
2022-10-19T13:43:33.877Z,58.14
2022-10-19T13:46:11.131Z,58.25
2022-10-19T13:48:55.997Z,58.02
2022-10-19T13:51:38.274Z,57.95
2022-10-19T13:54:42.541Z,57.99
2022-10-19T13:57:32.080Z,57.76
2022-10-19T14:00:26.935Z,57.94
2022-10-19T14:03:27.736Z,57.52
2022-10-19T14:06:33.520Z,57.56
2022-10-19T14:09:13.560Z,57.43
2022-10-19T14:11:40.832Z,57.36
2022-10-19T14:14:10.559Z,57.12
2022-10-19T14:16:55.998Z,57.53
2022-10-19T14:19:41.429Z,57.64
2022-10-19T14:22:24.914Z,57.45
2022-10-19T14:24:51.810Z,57.59
2022-10-19T14:27:22.372Z,57.63
2022-10-19T14:29:50.324Z,57.70
2022-10-19T14:32:17.659Z,57.82
2022-10-19T14:34:45.794Z,58.07
2022-10-19T14:37:22.341Z,58.18
2022-10-19T14:40:04.428Z,58.06
2022-10-19T14:42:58.404Z,58.09
2022-10-19T14:45:32.111Z,58.67
2022-10-19T14:48:02.756Z,58.67
2022-10-19T14:50:41.851Z,58.99
2022-10-19T14:53:11.579Z,59.21
2022-10-19T14:55:38.237Z,59.32
2022-10-19T14:58:05.756Z,59.33
2022-10-19T15:00:32.951Z,59.59
2022-10-19T15:03:01.343Z,59.42
2022-10-19T15:05:29.432Z,59.28
2022-10-19T15:07:56.169Z,59.17
2022-10-19T15:10:23.891Z,59.28
2022-10-19T15:12:51.287Z,58.96
2022-10-19T15:15:22.198Z,58.80
2022-10-19T15:17:56.566Z,58.74
2022-10-19T15:20:43.926Z,58.84
2022-10-19T15:23:33.846Z,58.60
2022-10-19T15:26:17.282Z,58.73
2022-10-19T15:28:44.428Z,58.78
2022-10-19T15:31:18.286Z,58.83
2022-10-19T15:33:58.821Z,58.62
2022-10-19T15:36:25.931Z,58.78
2022-10-19T15:39:06.375Z,58.73
2022-10-19T15:41:45.282Z,58.71
2022-10-19T15:44:29.738Z,58.59
2022-10-19T15:47:14.842Z,58.91
2022-10-19T15:49:41.508Z,58.95
2022-10-19T15:52:18.619Z,59.06
2022-10-19T15:54:49.097Z,59.22
2022-10-19T15:57:32.654Z,59.19
2022-10-19T16:00:01.774Z,59.26
2022-10-19T16:02:30.906Z,59.09
2022-10-19T16:04:57.589Z,59.26
2022-10-19T16:07:27.466Z,59.88
2022-10-19T16:09:54.784Z,59.88
2022-10-19T16:12:22.604Z,60.02
2022-10-19T16:14:49.344Z,60.51
2022-10-19T16:17:15.988Z,60.48
2022-10-19T16:19:43.259Z,60.72
2022-10-19T16:22:10.264Z,60.92
2022-10-19T16:24:36.933Z,60.98
2022-10-19T16:27:03.762Z,60.94
2022-10-19T16:29:33.390Z,61.26
2022-10-19T16:32:00.211Z,61.06
2022-10-19T16:34:27.287Z,61.56
2022-10-19T16:36:54.586Z,61.62
2022-10-19T16:39:21.401Z,61.56
2022-10-19T16:41:48.016Z,61.89
2022-10-19T16:44:14.789Z,62.30
2022-10-19T16:46:41.447Z,62.25
2022-10-19T16:49:08.162Z,62.46
2022-10-19T16:51:35.436Z,62.50
2022-10-19T16:54:02.640Z,62.41
2022-10-19T16:56:29.961Z,62.67
2022-10-19T16:59:01.238Z,62.68
2022-10-19T17:01:28.433Z,63.27
2022-10-19T17:03:55.465Z,63.58
2022-10-19T17:06:22.479Z,63.62
2022-10-19T17:11:37.341Z,63.28
2022-10-19T17:14:06.225Z,63.53
2022-10-19T17:16:33.680Z,63.40
2022-10-19T17:19:01.517Z,63.49
2022-10-19T17:21:29.512Z,63.43
2022-10-19T17:23:58.611Z,63.78
2022-10-19T17:26:32.853Z,63.91
2022-10-19T17:28:59.903Z,64.03
2022-10-19T17:31:26.867Z,64.36
2022-10-19T17:33:53.821Z,64.50
2022-10-19T17:36:26.277Z,64.88
2022-10-19T17:38:53.799Z,65.16
2022-10-19T17:41:22.119Z,65.41
2022-10-19T17:43:51.662Z,65.80
2022-10-19T17:46:19.921Z,66.13
2022-10-19T17:48:46.795Z,66.24
2022-10-19T17:51:17.225Z,66.49
2022-10-19T17:53:44.419Z,66.76
2022-10-19T17:56:12.327Z,66.96
2022-10-19T17:58:39.972Z,66.99
2022-10-19T18:01:07.083Z,67.33
2022-10-19T18:03:34.611Z,67.34
2022-10-19T18:06:08.199Z,66.76
2022-10-19T18:08:38.726Z,66.39
2022-10-19T18:11:11.061Z,66.53
2022-10-19T18:16:21.209Z,66.66
2022-10-19T18:18:48.942Z,67.23
2022-10-19T18:21:21.087Z,67.78
2022-10-19T18:23:48.157Z,68.42
2022-10-19T18:26:19.617Z,69.08
2022-10-19T18:28:46.716Z,69.38
2022-10-19T18:31:15.214Z,69.67
2022-10-19T18:33:42.222Z,70.20
2022-10-19T18:36:09.974Z,70.51
2022-10-19T18:38:36.935Z,70.88
2022-10-19T18:43:43.629Z,71.79
2022-10-19T18:46:10.859Z,72.25
2022-10-19T18:48:38.028Z,72.75
2022-10-19T18:51:06.741Z,73.29
2022-10-19T18:53:33.576Z,73.58
2022-10-19T18:56:00.674Z,73.95
2022-10-19T18:58:28.683Z,74.46
2022-10-19T19:01:15.586Z,74.92
2022-10-19T19:03:43.741Z,75.79
2022-10-19T19:06:12.320Z,76.35
2022-10-19T19:08:39.541Z,77.00
2022-10-19T19:11:13.340Z,77.48
2022-10-19T19:13:40.180Z,77.71
2022-10-19T19:16:07.406Z,78.09
2022-10-19T19:18:34.524Z,78.64
2022-10-19T19:21:02.473Z,78.77
2022-10-19T19:23:32.112Z,78.93
2022-10-19T19:25:58.812Z,79.25
2022-10-19T19:28:26.768Z,79.22
2022-10-19T19:30:53.549Z,79.71
2022-10-19T19:33:20.183Z,79.97
2022-10-19T19:35:47.557Z,80.37
2022-10-19T19:38:14.907Z,80.51
2022-10-19T19:40:42.289Z,80.65
2022-10-19T19:43:10.102Z,80.79
2022-10-19T19:45:37.245Z,81.32
2022-10-19T19:48:04.398Z,81.35
2022-10-19T19:50:31.629Z,81.50
2022-10-19T19:52:58.799Z,81.54
2022-10-19T19:55:26.246Z,81.72
2022-10-19T19:57:54.749Z,81.81
2022-10-19T20:00:22.364Z,81.85
2022-10-19T20:02:53.089Z,82.17
2022-10-19T20:05:19.908Z,82.26
2022-10-19T20:07:46.658Z,82.55
2022-10-19T20:10:16.172Z,82.80
2022-10-19T20:12:43.636Z,83.06
2022-10-19T20:15:11.244Z,83.15
2022-10-19T20:17:38.439Z,83.45
2022-10-19T20:20:06.303Z,83.41
2022-10-19T20:25:09.068Z,83.82
2022-10-19T20:27:36.238Z,83.79
2022-10-19T20:30:04.202Z,83.83
2022-10-19T20:32:30.918Z,83.68
2022-10-19T20:34:57.596Z,83.86
2022-10-19T20:37:24.387Z,83.83
2022-10-19T20:39:50.954Z,83.97
2022-10-19T20:42:18.053Z,83.98
2022-10-19T20:44:44.926Z,84.21
2022-10-19T20:47:11.668Z,84.20
2022-10-19T20:49:38.625Z,84.12
2022-10-19T20:52:05.335Z,84.19
2022-10-19T20:54:32.062Z,84.41
2022-10-19T20:56:58.758Z,85.04
2022-10-19T20:59:27.712Z,85.32
2022-10-19T21:01:55.961Z,84.94
2022-10-19T21:04:22.878Z,84.28
2022-10-19T21:06:49.794Z,84.76
2022-10-19T21:09:18.204Z,84.98
2022-10-19T21:11:45.016Z,85.29
2022-10-19T21:14:12.619Z,86.31
2022-10-19T21:16:39.507Z,86.51
2022-10-19T21:19:27.381Z,86.78
2022-10-19T21:22:02.034Z,87.05
2022-10-19T21:24:39.434Z,87.45
2022-10-19T21:27:07.538Z,87.90
2022-10-19T21:29:34.997Z,88.14
2022-10-19T21:32:01.856Z,88.42
2022-10-19T21:34:29.057Z,88.48
2022-10-19T21:36:55.926Z,88.96
2022-10-19T21:39:22.735Z,88.78
2022-10-19T21:41:49.378Z,88.14
2022-10-19T21:44:16.798Z,86.70
2022-10-19T21:46:43.946Z,86.96
2022-10-19T21:49:12.097Z,86.20
2022-10-19T21:51:53.576Z,86.38
2022-10-19T21:54:22.059Z,86.39
2022-10-19T21:56:48.896Z,86.63
2022-10-19T21:59:15.771Z,86.69
2022-10-19T22:01:42.666Z,86.82
2022-10-19T22:04:13.077Z,87.57
2022-10-19T22:06:39.802Z,87.77
2022-10-19T22:09:07.086Z,88.17
2022-10-19T22:11:34.033Z,88.39
2022-10-19T22:14:00.981Z,88.28
2022-10-19T22:16:27.956Z,87.81
2022-10-19T22:18:54.949Z,87.56
2022-10-19T22:21:23.622Z,87.34
2022-10-19T22:23:54.659Z,86.17
2022-10-19T22:26:26.725Z,84.11
2022-10-19T22:28:55.186Z,82.57
2022-10-19T22:31:21.910Z,82.00
2022-10-19T22:33:48.680Z,80.76
2022-10-19T22:36:16.157Z,80.91
2022-10-19T22:38:43.004Z,80.68
2022-10-19T22:41:47.716Z,80.20
2022-10-19T22:45:30.193Z,79.30
2022-10-19T22:49:12.619Z,77.90
2022-10-19T22:52:55.365Z,78.42
2022-10-19T22:55:24.286Z,79.18
2022-10-19T22:57:51.090Z,79.05
2022-10-19T23:00:17.898Z,78.99
2022-10-19T23:02:44.568Z,79.22
2022-10-19T23:05:11.284Z,79.51
2022-10-19T23:07:38.335Z,79.80
2022-10-19T23:10:06.157Z,80.26
2022-10-19T23:12:33.000Z,80.33
2022-10-19T23:14:59.746Z,80.36
2022-10-19T23:17:26.502Z,81.03
2022-10-19T23:19:53.170Z,81.33
2022-10-19T23:22:19.897Z,81.74
2022-10-19T23:24:46.670Z,81.95
2022-10-19T23:27:13.688Z,81.81
2022-10-19T23:29:40.418Z,81.45
2022-10-19T23:32:07.175Z,80.82
2022-10-19T23:37:05.566Z,80.66
2022-10-19T23:39:32.274Z,80.37
2022-10-19T23:41:59.064Z,80.55
2022-10-19T23:44:25.736Z,80.37
2022-10-19T23:46:52.478Z,80.41
2022-10-19T23:49:19.218Z,80.50
2022-10-19T23:51:46.017Z,80.87
2022-10-19T23:54:12.677Z,81.14
2022-10-19T23:56:39.424Z,81.51
2022-10-19T23:59:09.605Z,81.96
